sensor_id;sensor_type;location;lat;lon;timestamp;temperature;humidity
16491;DHT22;8356;51.214;3.270;2023-07-08T00:00:42;615.10;2432.00
16491;DHT22;8356;51.214;3.270;2023-07-08T00:03:08;614.90;2432.00
16491;DHT22;8356;51.214;3.270;2023-07-08T00:05:35;614.60;2432.00
16491;DHT22;8356;51.214;3.270;2023-07-08T00:08:01;614.60;2432.00
16491;DHT22;8356;51.214;3.270;2023-07-08T00:10:28;614.70;2432.00
16491;DHT22;8356;51.214;3.270;2023-07-08T00:12:57;614.50;2432.00
16491;DHT22;8356;51.214;3.270;2023-07-08T00:15:31;614.40;2432.00
16491;DHT22;8356;51.214;3.270;2023-07-08T00:18:00;589.70;2432.00
16491;DHT22;8356;51.214;3.270;2023-07-08T00:20:38;614.40;2432.00
16491;DHT22;8356;51.214;3.270;2023-07-08T00:23:04;614.50;2432.00
16491;DHT22;8356;51.214;3.270;2023-07-08T00:25:31;614.60;2432.00
16491;DHT22;8356;51.214;3.270;2023-07-08T00:27:57;614.40;2432.00
16491;DHT22;8356;51.214;3.270;2023-07-08T00:30:30;589.70;2432.00
16491;DHT22;8356;51.214;3.270;2023-07-08T00:32:57;589.70;2432.00
16491;DHT22;8356;51.214;3.270;2023-07-08T00:37:52;589.70;2432.00
16491;DHT22;8356;51.214;3.270;2023-07-08T00:40:28;589.60;2432.00
16491;DHT22;8356;51.214;3.270;2023-07-08T00:42:56;589.30;2432.00
16491;DHT22;8356;51.214;3.270;2023-07-08T00:47:53;589.30;2432.00
16491;DHT22;8356;51.214;3.270;2023-07-08T00:50:20;589.50;2432.00
16491;DHT22;8356;51.214;3.270;2023-07-08T00:52:46;589.40;2432.00
16491;DHT22;8356;51.214;3.270;2023-07-08T00:55:12;589.20;2432.00
16491;DHT22;8356;51.214;3.270;2023-07-08T00:57:41;589.20;2432.00
16491;DHT22;8356;51.214;3.270;2023-07-08T01:00:14;589.30;2432.00
16491;DHT22;8356;51.214;3.270;2023-07-08T01:02:52;589.50;2432.00
16491;DHT22;8356;51.214;3.270;2023-07-08T01:05:23;589.50;2432.00
16491;DHT22;8356;51.214;3.270;2023-07-08T01:07:54;589.50;2432.00
16491;DHT22;8356;51.214;3.270;2023-07-08T01:10:43;589.40;2432.00
16491;DHT22;8356;51.214;3.270;2023-07-08T01:13:12;589.50;2432.00
16491;DHT22;8356;51.214;3.270;2023-07-08T01:15:42;589.40;2432.00
16491;DHT22;8356;51.214;3.270;2023-07-08T01:18:09;589.50;2432.00
16491;DHT22;8356;51.214;3.270;2023-07-08T01:20:35;589.40;2432.00
16491;DHT22;8356;51.214;3.270;2023-07-08T01:23:01;589.50;2432.00
16491;DHT22;8356;51.214;3.270;2023-07-08T01:25:27;589.50;2432.00
16491;DHT22;8356;51.214;3.270;2023-07-08T01:27:54;589.30;2432.00
16491;DHT22;8356;51.214;3.270;2023-07-08T01:30:21;589.20;2432.00
16491;DHT22;8356;51.214;3.270;2023-07-08T01:32:53;589.00;2432.00
16491;DHT22;8356;51.214;3.270;2023-07-08T01:35:21;589.00;2432.00
16491;DHT22;8356;51.214;3.270;2023-07-08T01:38:08;564.10;2432.00
16491;DHT22;8356;51.214;3.270;2023-07-08T01:40:36;564.10;2432.00
16491;DHT22;8356;51.214;3.270;2023-07-08T01:43:04;588.80;2432.00
16491;DHT22;8356;51.214;3.270;2023-07-08T01:45:37;588.80;2432.00
16491;DHT22;8356;51.214;3.270;2023-07-08T01:48:08;588.90;2432.00
16491;DHT22;8356;51.214;3.270;2023-07-08T01:50:37;589.10;2432.00
16491;DHT22;8356;51.214;3.270;2023-07-08T01:53:10;589.10;2432.00
16491;DHT22;8356;51.214;3.270;2023-07-08T01:55:37;588.90;2432.00
16491;DHT22;8356;51.214;3.270;2023-07-08T01:58:02;564.10;2432.00
16491;DHT22;8356;51.214;3.270;2023-07-08T02:00:28;588.80;2432.00
16491;DHT22;8356;51.214;3.270;2023-07-08T02:02:53;564.00;2432.00
16491;DHT22;8356;51.214;3.270;2023-07-08T02:05:19;564.00;2432.00
16491;DHT22;8356;51.214;3.270;2023-07-08T02:07:45;563.90;2432.00
16491;DHT22;8356;51.214;3.270;2023-07-08T02:10:11;563.80;2432.00
16491;DHT22;8356;51.214;3.270;2023-07-08T02:12:36;563.60;2432.00
16491;DHT22;8356;51.214;3.270;2023-07-08T02:15:03;563.60;2432.00
16491;DHT22;8356;51.214;3.270;2023-07-08T02:17:29;564.00;2432.00
16491;DHT22;8356;51.214;3.270;2023-07-08T02:19:55;563.60;2432.00
16491;DHT22;8356;51.214;3.270;2023-07-08T02:22:21;563.80;2432.00
16491;DHT22;8356;51.214;3.270;2023-07-08T02:24:47;564.00;2432.00
16491;DHT22;8356;51.214;3.270;2023-07-08T02:27:14;564.00;2432.00
16491;DHT22;8356;51.214;3.270;2023-07-08T02:29:40;563.80;2432.00
16491;DHT22;8356;51.214;3.270;2023-07-08T02:32:09;564.00;2432.00
16491;DHT22;8356;51.214;3.270;2023-07-08T02:34:38;564.00;2432.00
16491;DHT22;8356;51.214;3.270;2023-07-08T02:37:03;563.60;2432.00
16491;DHT22;8356;51.214;3.270;2023-07-08T02:39:29;563.60;2432.00
16491;DHT22;8356;51.214;3.270;2023-07-08T02:41:55;563.70;2432.00
16491;DHT22;8356;51.214;3.270;2023-07-08T02:44:21;563.60;2432.00
16491;DHT22;8356;51.214;3.270;2023-07-08T02:46:46;563.60;2432.00
16491;DHT22;8356;51.214;3.270;2023-07-08T02:49:12;563.40;2432.00
16491;DHT22;8356;51.214;3.270;2023-07-08T02:51:37;563.40;2432.00
16491;DHT22;8356;51.214;3.270;2023-07-08T02:54:03;563.30;2432.00
16491;DHT22;8356;51.214;3.270;2023-07-08T02:56:29;563.30;2432.00
16491;DHT22;8356;51.214;3.270;2023-07-08T02:58:54;563.20;2432.00
16491;DHT22;8356;51.214;3.270;2023-07-08T03:01:20;538.50;2406.40
16491;DHT22;8356;51.214;3.270;2023-07-08T03:03:46;538.30;2406.40
16491;DHT22;8356;51.214;3.270;2023-07-08T03:06:13;538.30;2406.40
16491;DHT22;8356;51.214;3.270;2023-07-08T03:08:38;538.20;2406.40
16491;DHT22;8356;51.214;3.270;2023-07-08T03:11:05;538.30;2406.40
16491;DHT22;8356;51.214;3.270;2023-07-08T03:13:32;538.40;2406.40
16491;DHT22;8356;51.214;3.270;2023-07-08T03:16:00;563.30;2432.00
16491;DHT22;8356;51.214;3.270;2023-07-08T03:18:26;563.40;2432.00
16491;DHT22;8356;51.214;3.270;2023-07-08T03:20:53;563.30;2432.00
16491;DHT22;8356;51.214;3.270;2023-07-08T03:23:21;538.50;2406.40
16491;DHT22;8356;51.214;3.270;2023-07-08T03:25:47;538.30;2406.40
16491;DHT22;8356;51.214;3.270;2023-07-08T03:28:13;538.10;2406.40
16491;DHT22;8356;51.214;3.270;2023-07-08T03:30:41;538.10;2406.40
16491;DHT22;8356;51.214;3.270;2023-07-08T03:33:07;538.10;2406.40
16491;DHT22;8356;51.214;3.270;2023-07-08T03:35:33;538.00;2406.40
16491;DHT22;8356;51.214;3.270;2023-07-08T03:37:59;538.30;2406.40
16491;DHT22;8356;51.214;3.270;2023-07-08T03:40:24;563.20;2432.00
16491;DHT22;8356;51.214;3.270;2023-07-08T03:42:50;538.50;2406.40
16491;DHT22;8356;51.214;3.270;2023-07-08T03:45:16;538.40;2406.40
16491;DHT22;8356;51.214;3.270;2023-07-08T03:47:41;538.50;2406.40
16491;DHT22;8356;51.214;3.270;2023-07-08T03:52:46;563.30;2432.00
16491;DHT22;8356;51.214;3.270;2023-07-08T03:55:12;563.30;2432.00
16491;DHT22;8356;51.214;3.270;2023-07-08T03:57:38;563.40;2432.00
16491;DHT22;8356;51.214;3.270;2023-07-08T04:00:04;563.30;2432.00
16491;DHT22;8356;51.214;3.270;2023-07-08T04:02:30;538.20;2406.40
16491;DHT22;8356;51.214;3.270;2023-07-08T04:04:55;537.80;2406.40
16491;DHT22;8356;51.214;3.270;2023-07-08T04:07:21;537.80;2406.40
16491;DHT22;8356;51.214;3.270;2023-07-08T04:09:47;537.80;2406.40
16491;DHT22;8356;51.214;3.270;2023-07-08T04:12:16;538.00;2406.40
16491;DHT22;8356;51.214;3.270;2023-07-08T04:14:41;538.00;2406.40
16491;DHT22;8356;51.214;3.270;2023-07-08T04:17:08;537.80;2406.40
16491;DHT22;8356;51.214;3.270;2023-07-08T04:19:34;537.70;2406.40
16491;DHT22;8356;51.214;3.270;2023-07-08T04:22:01;537.60;2406.40
16491;DHT22;8356;51.214;3.270;2023-07-08T04:24:27;512.90;2380.80
16491;DHT22;8356;51.214;3.270;2023-07-08T04:26:53;512.80;2380.80
16491;DHT22;8356;51.214;3.270;2023-07-08T04:29:21;512.70;2380.80
16491;DHT22;8356;51.214;3.270;2023-07-08T04:31:48;512.80;2380.80
16491;DHT22;8356;51.214;3.270;2023-07-08T04:34:14;512.80;2380.80
16491;DHT22;8356;51.214;3.270;2023-07-08T04:36:40;512.80;2380.80
16491;DHT22;8356;51.214;3.270;2023-07-08T04:39:07;512.80;2380.80
16491;DHT22;8356;51.214;3.270;2023-07-08T04:41:34;512.90;2380.80
16491;DHT22;8356;51.214;3.270;2023-07-08T04:43:59;512.90;2380.80
16491;DHT22;8356;51.214;3.270;2023-07-08T04:46:43;537.60;2406.40
16491;DHT22;8356;51.214;3.270;2023-07-08T04:49:10;537.70;2406.40
16491;DHT22;8356;51.214;3.270;2023-07-08T04:51:36;537.80;2406.40
16491;DHT22;8356;51.214;3.270;2023-07-08T04:54:03;537.90;2406.40
16491;DHT22;8356;51.214;3.270;2023-07-08T04:56:55;537.80;2406.40
16491;DHT22;8356;51.214;3.270;2023-07-08T04:59:23;537.90;2406.40
16491;DHT22;8356;51.214;3.270;2023-07-08T05:01:49;538.10;2406.40
16491;DHT22;8356;51.214;3.270;2023-07-08T05:04:17;538.20;2406.40
16491;DHT22;8356;51.214;3.270;2023-07-08T05:06:43;538.10;2406.40
16491;DHT22;8356;51.214;3.270;2023-07-08T05:09:09;538.00;2406.40
16491;DHT22;8356;51.214;3.270;2023-07-08T05:11:35;538.00;2406.40
16491;DHT22;8356;51.214;3.270;2023-07-08T05:14:02;538.00;2406.40
16491;DHT22;8356;51.214;3.270;2023-07-08T05:16:28;538.20;2406.40
16491;DHT22;8356;51.214;3.270;2023-07-08T05:18:54;538.30;2406.40
16491;DHT22;8356;51.214;3.270;2023-07-08T05:21:20;538.40;2406.40
16491;DHT22;8356;51.214;3.270;2023-07-08T05:23:48;538.50;2406.40
16491;DHT22;8356;51.214;3.270;2023-07-08T05:26:15;563.30;2432.00
16491;DHT22;8356;51.214;3.270;2023-07-08T05:28:40;563.30;2432.00
16491;DHT22;8356;51.214;3.270;2023-07-08T05:31:06;563.40;2432.00
16491;DHT22;8356;51.214;3.270;2023-07-08T05:33:32;538.50;2406.40
16491;DHT22;8356;51.214;3.270;2023-07-08T05:35:58;538.50;2406.40
16491;DHT22;8356;51.214;3.270;2023-07-08T05:38:24;538.40;2406.40
16491;DHT22;8356;51.214;3.270;2023-07-08T05:40:51;538.50;2406.40
16491;DHT22;8356;51.214;3.270;2023-07-08T05:43:19;563.20;2432.00
16491;DHT22;8356;51.214;3.270;2023-07-08T05:45:45;563.30;2432.00
16491;DHT22;8356;51.214;3.270;2023-07-08T05:48:11;563.40;2432.00
16491;DHT22;8356;51.214;3.270;2023-07-08T05:50:37;563.40;2432.00
16491;DHT22;8356;51.214;3.270;2023-07-08T05:53:02;563.40;2432.00
16491;DHT22;8356;51.214;3.270;2023-07-08T05:55:28;563.50;2432.00
16491;DHT22;8356;51.214;3.270;2023-07-08T05:57:54;563.50;2432.00
16491;DHT22;8356;51.214;3.270;2023-07-08T06:00:19;563.70;2432.00
16491;DHT22;8356;51.214;3.270;2023-07-08T06:02:45;563.80;2432.00
16491;DHT22;8356;51.214;3.270;2023-07-08T06:05:11;563.80;2432.00
16491;DHT22;8356;51.214;3.270;2023-07-08T06:07:36;563.80;2432.00
16491;DHT22;8356;51.214;3.270;2023-07-08T06:10:02;563.90;2432.00
16491;DHT22;8356;51.214;3.270;2023-07-08T06:12:29;564.00;2432.00
16491;DHT22;8356;51.214;3.270;2023-07-08T06:14:56;564.10;2432.00
16491;DHT22;8356;51.214;3.270;2023-07-08T06:17:21;588.90;2432.00
16491;DHT22;8356;51.214;3.270;2023-07-08T06:19:47;589.00;2432.00
16491;DHT22;8356;51.214;3.270;2023-07-08T06:22:13;589.00;2432.00
16491;DHT22;8356;51.214;3.270;2023-07-08T06:24:39;589.10;2432.00
16491;DHT22;8356;51.214;3.270;2023-07-08T06:27:05;589.20;2432.00
16491;DHT22;8356;51.214;3.270;2023-07-08T06:29:30;589.00;2432.00
16491;DHT22;8356;51.214;3.270;2023-07-08T06:31:56;589.00;2432.00
16491;DHT22;8356;51.214;3.270;2023-07-08T06:34:22;589.30;2432.00
16491;DHT22;8356;51.214;3.270;2023-07-08T06:36:49;589.30;2432.00
16491;DHT22;8356;51.214;3.270;2023-07-08T06:39:16;589.50;2432.00
16491;DHT22;8356;51.214;3.270;2023-07-08T06:41:43;589.40;2432.00
16491;DHT22;8356;51.214;3.270;2023-07-08T06:44:08;589.60;2432.00
16491;DHT22;8356;51.214;3.270;2023-07-08T06:46:34;589.70;2432.00
16491;DHT22;8356;51.214;3.270;2023-07-08T06:49:00;614.40;2432.00
16491;DHT22;8356;51.214;3.270;2023-07-08T06:51:26;614.40;2432.00
16491;DHT22;8356;51.214;3.270;2023-07-08T06:53:52;614.50;2432.00
16491;DHT22;8356;51.214;3.270;2023-07-08T06:56:18;614.60;2432.00
16491;DHT22;8356;51.214;3.270;2023-07-08T06:58:44;614.80;2432.00
16491;DHT22;8356;51.214;3.270;2023-07-08T07:01:09;614.80;2432.00
16491;DHT22;8356;51.214;3.270;2023-07-08T07:03:35;614.90;2432.00
16491;DHT22;8356;51.214;3.270;2023-07-08T07:06:01;615.10;2432.00
16491;DHT22;8356;51.214;3.270;2023-07-08T07:08:27;615.30;2432.00
16491;DHT22;8356;51.214;3.270;2023-07-08T07:10:52;640.10;2432.00
16491;DHT22;8356;51.214;3.270;2023-07-08T07:13:18;640.20;2432.00
16491;DHT22;8356;51.214;3.270;2023-07-08T07:15:44;640.40;2432.00
16491;DHT22;8356;51.214;3.270;2023-07-08T07:18:09;640.60;2432.00
16491;DHT22;8356;51.214;3.270;2023-07-08T07:20:37;640.80;2432.00
16491;DHT22;8356;51.214;3.270;2023-07-08T07:23:03;665.60;2432.00
16491;DHT22;8356;51.214;3.270;2023-07-08T07:25:29;665.90;2432.00
16491;DHT22;8356;51.214;3.270;2023-07-08T07:27:55;666.10;2432.00
16491;DHT22;8356;51.214;3.270;2023-07-08T07:30:21;666.20;2432.00
16491;DHT22;8356;51.214;3.270;2023-07-08T07:32:46;666.50;2432.00
16491;DHT22;8356;51.214;3.270;2023-07-08T07:35:13;691.30;2432.00
16491;DHT22;8356;51.214;3.270;2023-07-08T07:37:41;691.40;2432.00
16491;DHT22;8356;51.214;3.270;2023-07-08T07:40:12;691.60;2432.00
16491;DHT22;8356;51.214;3.270;2023-07-08T07:42:40;691.70;2432.00
16491;DHT22;8356;51.214;3.270;2023-07-08T07:45:07;691.90;2432.00
16491;DHT22;8356;51.214;3.270;2023-07-08T07:47:33;692.10;2432.00
16491;DHT22;8356;51.214;3.270;2023-07-08T07:49:58;716.90;2432.00
16491;DHT22;8356;51.214;3.270;2023-07-08T07:52:24;717.10;2432.00
16491;DHT22;8356;51.214;3.270;2023-07-08T07:54:54;717.30;2432.00
16491;DHT22;8356;51.214;3.270;2023-07-08T07:57:22;717.50;2432.00
16491;DHT22;8356;51.214;3.270;2023-07-08T07:59:48;717.70;2432.00
16491;DHT22;8356;51.214;3.270;2023-07-08T08:02:15;742.60;2432.00
16491;DHT22;8356;51.214;3.270;2023-07-08T08:04:40;742.60;2432.00
16491;DHT22;8356;51.214;3.270;2023-07-08T08:07:06;742.70;2432.00
16491;DHT22;8356;51.214;3.270;2023-07-08T08:09:32;742.70;2432.00
16491;DHT22;8356;51.214;3.270;2023-07-08T08:11:57;742.90;2432.00
16491;DHT22;8356;51.214;3.270;2023-07-08T08:14:23;743.20;2432.00
16491;DHT22;8356;51.214;3.270;2023-07-08T08:16:50;743.20;2432.00
16491;DHT22;8356;51.214;3.270;2023-07-08T08:19:15;743.20;2432.00
16491;DHT22;8356;51.214;3.270;2023-07-08T08:21:41;743.30;2432.00
16491;DHT22;8356;51.214;3.270;2023-07-08T08:24:06;768.10;2432.00
16491;DHT22;8356;51.214;3.270;2023-07-08T08:26:32;768.40;2432.00
16491;DHT22;8356;51.214;3.270;2023-07-08T08:28:58;768.50;2432.00
16491;DHT22;8356;51.214;3.270;2023-07-08T08:31:24;768.70;2432.00
16491;DHT22;8356;51.214;3.270;2023-07-08T08:33:51;768.80;2406.40
16491;DHT22;8356;51.214;3.270;2023-07-08T08:36:17;768.90;2380.80
16491;DHT22;8356;51.214;3.270;2023-07-08T08:38:42;768.90;2380.80
16491;DHT22;8356;51.214;3.270;2023-07-08T08:41:17;793.80;2380.80
16491;DHT22;8356;51.214;3.270;2023-07-08T08:43:44;793.80;2380.80
16491;DHT22;8356;51.214;3.270;2023-07-08T08:51:23;794.50;2380.80
16491;DHT22;8356;51.214;3.270;2023-07-08T08:53:53;794.50;2329.60
16491;DHT22;8356;51.214;3.270;2023-07-08T08:56:39;819.20;2304.00
16491;DHT22;8356;51.214;3.270;2023-07-08T08:59:27;819.40;2304.00
16491;DHT22;8356;51.214;3.270;2023-07-08T09:01:55;819.60;2304.00
16491;DHT22;8356;51.214;3.270;2023-07-08T09:04:27;819.90;2304.00
16491;DHT22;8356;51.214;3.270;2023-07-08T09:07:00;820.10;2304.00
16491;DHT22;8356;51.214;3.270;2023-07-08T09:09:38;845.10;2304.00
16491;DHT22;8356;51.214;3.270;2023-07-08T09:12:11;845.20;2278.40
16491;DHT22;8356;51.214;3.270;2023-07-08T09:14:39;845.20;2252.80
16491;DHT22;8356;51.214;3.270;2023-07-08T09:17:29;845.20;2252.80
16491;DHT22;8356;51.214;3.270;2023-07-08T09:20:12;845.30;2252.80
16491;DHT22;8356;51.214;3.270;2023-07-08T09:23:09;845.50;2227.20
16491;DHT22;8356;51.214;3.270;2023-07-08T09:28:13;845.70;2201.60
16491;DHT22;8356;51.214;3.270;2023-07-08T09:30:39;870.50;2201.60
16491;DHT22;8356;51.214;3.270;2023-07-08T09:33:07;870.60;2176.00
16491;DHT22;8356;51.214;3.270;2023-07-08T09:35:40;870.60;2176.00
16491;DHT22;8356;51.214;3.270;2023-07-08T09:38:08;870.60;2176.00
16491;DHT22;8356;51.214;3.270;2023-07-08T09:40:34;870.80;2150.40
16491;DHT22;8356;51.214;3.270;2023-07-08T09:43:18;870.70;2150.40
16491;DHT22;8356;51.214;3.270;2023-07-08T09:45:47;870.80;2150.40
16491;DHT22;8356;51.214;3.270;2023-07-08T09:48:23;870.90;2124.80
16491;DHT22;8356;51.214;3.270;2023-07-08T09:50:51;871.00;2150.40
16491;DHT22;8356;51.214;3.270;2023-07-08T09:53:17;871.00;2150.40
16491;DHT22;8356;51.214;3.270;2023-07-08T09:55:44;871.20;2150.40
16491;DHT22;8356;51.214;3.270;2023-07-08T09:58:18;871.20;2124.80
16491;DHT22;8356;51.214;3.270;2023-07-08T10:00:59;896.20;2124.80
16491;DHT22;8356;51.214;3.270;2023-07-08T10:03:30;896.10;2099.20
16491;DHT22;8356;51.214;3.270;2023-07-08T10:05:58;896.10;2073.60
16491;DHT22;8356;51.214;3.270;2023-07-08T10:08:35;896.20;2073.60
16491;DHT22;8356;51.214;3.270;2023-07-08T10:11:30;896.20;2048.00
16491;DHT22;8356;51.214;3.270;2023-07-08T10:14:39;896.30;2048.00
16491;DHT22;8356;51.214;3.270;2023-07-08T10:17:14;896.30;2048.00
16491;DHT22;8356;51.214;3.270;2023-07-08T10:19:40;896.60;2048.00
16491;DHT22;8356;51.214;3.270;2023-07-08T10:22:22;921.60;2048.00
16491;DHT22;8356;51.214;3.270;2023-07-08T10:24:58;921.80;1996.80
16491;DHT22;8356;51.214;3.270;2023-07-08T10:27:35;921.80;1971.20
16491;DHT22;8356;51.214;3.270;2023-07-08T10:30:21;921.90;1971.20
16491;DHT22;8356;51.214;3.270;2023-07-08T10:35:27;922.30;1945.60
16491;DHT22;8356;51.214;3.270;2023-07-08T10:38:13;922.30;1945.60
16491;DHT22;8356;51.214;3.270;2023-07-08T10:46:30;922.20;1894.40
16491;DHT22;8356;51.214;3.270;2023-07-08T10:57:01;896.00;2073.60
16491;DHT22;8356;51.214;3.270;2023-07-08T11:00:02;871.20;2099.20
16491;DHT22;8356;51.214;3.270;2023-07-08T11:05:20;871.20;2099.20
16491;DHT22;8356;51.214;3.270;2023-07-08T11:07:55;871.20;2124.80
16491;DHT22;8356;51.214;3.270;2023-07-08T11:10:28;871.20;2124.80
16491;DHT22;8356;51.214;3.270;2023-07-08T11:13:13;871.20;2124.80
16491;DHT22;8356;51.214;3.270;2023-07-08T11:15:51;871.20;2124.80
16491;DHT22;8356;51.214;3.270;2023-07-08T11:21:16;896.10;2124.80
16491;DHT22;8356;51.214;3.270;2023-07-08T11:24:31;896.10;2124.80
16491;DHT22;8356;51.214;3.270;2023-07-08T11:26:55;896.20;2099.20
16491;DHT22;8356;51.214;3.270;2023-07-08T11:29:28;896.00;2073.60
16491;DHT22;8356;51.214;3.270;2023-07-08T11:31:55;896.10;2099.20
16491;DHT22;8356;51.214;3.270;2023-07-08T11:34:23;896.20;2073.60
16491;DHT22;8356;51.214;3.270;2023-07-08T11:36:51;896.20;2048.00
16491;DHT22;8356;51.214;3.270;2023-07-08T11:42:23;896.30;2073.60
16491;DHT22;8356;51.214;3.270;2023-07-08T11:44:56;896.20;2073.60
16491;DHT22;8356;51.214;3.270;2023-07-08T11:47:26;871.20;2073.60
16491;DHT22;8356;51.214;3.270;2023-07-08T11:49:57;870.80;2099.20
16491;DHT22;8356;51.214;3.270;2023-07-08T11:52:23;870.70;2124.80
16491;DHT22;8356;51.214;3.270;2023-07-08T11:54:57;870.80;2099.20
16491;DHT22;8356;51.214;3.270;2023-07-08T11:57:30;871.00;2099.20
16491;DHT22;8356;51.214;3.270;2023-07-08T12:02:53;896.00;2073.60
16491;DHT22;8356;51.214;3.270;2023-07-08T12:05:36;871.10;2073.60
16491;DHT22;8356;51.214;3.270;2023-07-08T12:08:03;870.80;2073.60
16491;DHT22;8356;51.214;3.270;2023-07-08T12:10:45;870.60;2124.80
16491;DHT22;8356;51.214;3.270;2023-07-08T12:13:14;870.50;2176.00
16491;DHT22;8356;51.214;3.270;2023-07-08T12:15:41;870.50;2176.00
16491;DHT22;8356;51.214;3.270;2023-07-08T12:20:55;845.70;2124.80
16491;DHT22;8356;51.214;3.270;2023-07-08T12:23:24;845.60;2176.00
16491;DHT22;8356;51.214;3.270;2023-07-08T12:25:50;845.50;2176.00
16491;DHT22;8356;51.214;3.270;2023-07-08T12:28:17;845.30;2176.00
16491;DHT22;8356;51.214;3.270;2023-07-08T12:30:45;845.10;2176.00
16491;DHT22;8356;51.214;3.270;2023-07-08T12:33:33;845.00;2176.00
16491;DHT22;8356;51.214;3.270;2023-07-08T12:36:00;845.10;2227.20
16491;DHT22;8356;51.214;3.270;2023-07-08T12:38:41;845.00;2227.20
16491;DHT22;8356;51.214;3.270;2023-07-08T12:41:19;845.00;2252.80
16491;DHT22;8356;51.214;3.270;2023-07-08T12:43:46;845.00;2227.20
16491;DHT22;8356;51.214;3.270;2023-07-08T12:46:13;845.00;2227.20
16491;DHT22;8356;51.214;3.270;2023-07-08T12:48:40;844.80;2201.60
16491;DHT22;8356;51.214;3.270;2023-07-08T12:51:11;844.90;2252.80
16491;DHT22;8356;51.214;3.270;2023-07-08T12:53:36;845.10;2252.80
16491;DHT22;8356;51.214;3.270;2023-07-08T12:56:03;845.00;2201.60
16491;DHT22;8356;51.214;3.270;2023-07-08T12:58:32;844.90;2201.60
16491;DHT22;8356;51.214;3.270;2023-07-08T13:01:01;845.00;2227.20
16491;DHT22;8356;51.214;3.270;2023-07-08T13:03:30;845.10;2227.20
16491;DHT22;8356;51.214;3.270;2023-07-08T13:05:57;845.20;2252.80
16491;DHT22;8356;51.214;3.270;2023-07-08T13:08:26;845.20;2227.20
16491;DHT22;8356;51.214;3.270;2023-07-08T13:10:55;845.50;2201.60
16491;DHT22;8356;51.214;3.270;2023-07-08T13:13:25;845.70;2176.00
16491;DHT22;8356;51.214;3.270;2023-07-08T13:15:52;845.60;2124.80
16491;DHT22;8356;51.214;3.270;2023-07-08T13:18:36;845.30;2073.60
16491;DHT22;8356;51.214;3.270;2023-07-08T13:21:04;845.00;2124.80
16491;DHT22;8356;51.214;3.270;2023-07-08T13:23:30;845.20;2099.20
16491;DHT22;8356;51.214;3.270;2023-07-08T13:25:56;845.50;2048.00
16491;DHT22;8356;51.214;3.270;2023-07-08T13:28:26;845.70;2022.40
16491;DHT22;8356;51.214;3.270;2023-07-08T13:31:00;845.60;2048.00
16491;DHT22;8356;51.214;3.270;2023-07-08T13:33:31;845.20;2022.40
16491;DHT22;8356;51.214;3.270;2023-07-08T13:35:58;845.10;2048.00
16491;DHT22;8356;51.214;3.270;2023-07-08T13:38:32;845.00;2073.60
16491;DHT22;8356;51.214;3.270;2023-07-08T13:41:02;844.90;2099.20
16491;DHT22;8356;51.214;3.270;2023-07-08T13:43:30;845.10;2124.80
16491;DHT22;8356;51.214;3.270;2023-07-08T13:45:57;845.20;2150.40
16491;DHT22;8356;51.214;3.270;2023-07-08T13:48:27;845.20;2150.40
16491;DHT22;8356;51.214;3.270;2023-07-08T13:51:10;845.50;2124.80
16491;DHT22;8356;51.214;3.270;2023-07-08T13:56:16;845.50;2099.20
16491;DHT22;8356;51.214;3.270;2023-07-08T13:58:50;845.30;2099.20
16491;DHT22;8356;51.214;3.270;2023-07-08T14:01:22;845.50;2124.80
16491;DHT22;8356;51.214;3.270;2023-07-08T14:03:49;845.40;2124.80
16491;DHT22;8356;51.214;3.270;2023-07-08T14:06:17;845.50;2124.80
16491;DHT22;8356;51.214;3.270;2023-07-08T14:08:43;845.40;2099.20
16491;DHT22;8356;51.214;3.270;2023-07-08T14:11:08;845.50;2099.20
16491;DHT22;8356;51.214;3.270;2023-07-08T14:13:34;845.70;2099.20
16491;DHT22;8356;51.214;3.270;2023-07-08T14:16:01;870.40;2073.60
16491;DHT22;8356;51.214;3.270;2023-07-08T14:18:29;870.50;2048.00
16491;DHT22;8356;51.214;3.270;2023-07-08T14:20:54;845.50;2022.40
16491;DHT22;8356;51.214;3.270;2023-07-08T14:23:20;845.00;2022.40
16491;DHT22;8356;51.214;3.270;2023-07-08T14:25:46;820.10;1996.80
16491;DHT22;8356;51.214;3.270;2023-07-08T14:28:11;845.00;2073.60
16491;DHT22;8356;51.214;3.270;2023-07-08T14:30:42;845.50;2124.80
16491;DHT22;8356;51.214;3.270;2023-07-08T14:33:11;845.70;2073.60
16491;DHT22;8356;51.214;3.270;2023-07-08T14:35:38;845.70;1996.80
16491;DHT22;8356;51.214;3.270;2023-07-08T14:38:11;845.60;1996.80
16491;DHT22;8356;51.214;3.270;2023-07-08T14:40:41;845.50;2022.40
16491;DHT22;8356;51.214;3.270;2023-07-08T14:43:15;845.50;1996.80
16491;DHT22;8356;51.214;3.270;2023-07-08T14:45:46;845.20;2073.60
16491;DHT22;8356;51.214;3.270;2023-07-08T14:48:13;845.10;2099.20
16491;DHT22;8356;51.214;3.270;2023-07-08T14:50:39;845.00;2150.40
16491;DHT22;8356;51.214;3.270;2023-07-08T14:53:05;845.00;2227.20
16491;DHT22;8356;51.214;3.270;2023-07-08T14:55:31;819.90;2304.00
16491;DHT22;8356;51.214;3.270;2023-07-08T14:57:57;819.30;2432.00
16491;DHT22;8356;51.214;3.270;2023-07-08T15:00:23;794.30;2432.00
16491;DHT22;8356;51.214;3.270;2023-07-08T15:02:51;794.20;2432.00
16491;DHT22;8356;51.214;3.270;2023-07-08T15:05:25;793.70;2432.00
16491;DHT22;8356;51.214;3.270;2023-07-08T15:07:53;793.70;2432.00
16491;DHT22;8356;51.214;3.270;2023-07-08T15:10:21;794.00;2432.00
16491;DHT22;8356;51.214;3.270;2023-07-08T15:12:47;793.60;2432.00
16491;DHT22;8356;51.214;3.270;2023-07-08T15:15:26;768.20;2432.00
16491;DHT22;8356;51.214;3.270;2023-07-08T15:17:52;793.60;2432.00
16491;DHT22;8356;51.214;3.270;2023-07-08T15:20:18;793.80;2432.00
16491;DHT22;8356;51.214;3.270;2023-07-08T15:22:44;794.00;2432.00
16491;DHT22;8356;51.214;3.270;2023-07-08T15:25:14;794.30;2432.00
16491;DHT22;8356;51.214;3.270;2023-07-08T15:27:43;794.50;2432.00
16491;DHT22;8356;51.214;3.270;2023-07-08T15:30:16;819.20;2432.00
16491;DHT22;8356;51.214;3.270;2023-07-08T15:32:42;819.40;2432.00
16491;DHT22;8356;51.214;3.270;2023-07-08T15:35:15;819.70;2432.00
16491;DHT22;8356;51.214;3.270;2023-07-08T15:37:42;819.80;2432.00
16491;DHT22;8356;51.214;3.270;2023-07-08T15:40:09;819.80;2432.00
16491;DHT22;8356;51.214;3.270;2023-07-08T15:42:36;819.80;2432.00
16491;DHT22;8356;51.214;3.270;2023-07-08T15:45:13;819.60;2432.00
16491;DHT22;8356;51.214;3.270;2023-07-08T15:47:39;819.40;2380.80
16491;DHT22;8356;51.214;3.270;2023-07-08T15:50:13;794.50;2406.40
16491;DHT22;8356;51.214;3.270;2023-07-08T15:52:39;794.40;2355.20
16491;DHT22;8356;51.214;3.270;2023-07-08T15:55:07;793.60;2355.20
16491;DHT22;8356;51.214;3.270;2023-07-08T15:57:38;794.00;2355.20
16491;DHT22;8356;51.214;3.270;2023-07-08T16:00:14;794.00;2380.80
16491;DHT22;8356;51.214;3.270;2023-07-08T16:02:40;794.50;2406.40